Time;durP1;ratioP1;P1;durP2;ratioP2;P2;SDS_P1;SDS_P2;PMS_P1;PMS_P2;Temp;Humidity;BMP_temperature;BMP_pressure;BME280_temperature;BME280_humidity;BME280_pressure;Samples;Min_cycle;Max_cycle;Signal;HPM_P1;HPM_P2
2022/03/09 00:02:24;;;;;;;7.33;6.33;;;2.90;99.90;;;;;;5013321;28;20650;-72
2022/03/09 00:04:49;;;;;;;6.33;4.53;;;2.90;99.90;;;;;;5013618;28;20168;-73
2022/03/09 00:07:15;;;;;;;9.63;6.00;;;2.90;99.90;;;;;;5013731;28;20192;-73
2022/03/09 00:09:40;;;;;;;6.17;5.40;;;2.80;99.90;;;;;;5001992;28;20279;-72
2022/03/09 00:12:06;;;;;;;5.93;4.60;;;2.80;99.90;;;;;;5013073;28;20627;-72
2022/03/09 00:14:32;;;;;;;6.50;4.90;;;2.80;99.90;;;;;;5013535;28;20532;-72
2022/03/09 00:16:57;;;;;;;6.63;4.77;;;2.80;99.90;;;;;;5013099;28;20451;-72
2022/03/09 00:19:24;;;;;;;8.60;5.30;;;2.80;99.90;;;;;;5013079;28;20192;-73
2022/03/09 00:21:50;;;;;;;6.50;5.70;;;2.80;99.90;;;;;;5013449;28;20534;-73
2022/03/09 00:24:16;;;;;;;7.23;5.97;;;2.70;99.90;;;;;;5013203;28;20411;-71
2022/03/09 00:26:42;;;;;;;4.97;4.53;;;2.70;99.90;;;;;;5036674;22;20172;-68
2022/03/09 00:29:07;;;;;;;6.80;4.20;;;2.60;99.90;;;;;;5011672;28;20506;-68
2022/03/09 00:31:33;;;;;;;5.67;4.57;;;2.70;99.90;;;;;;5013000;28;20246;-68
2022/03/09 00:33:58;;;;;;;5.93;5.10;;;2.60;99.90;;;;;;5012705;28;20227;-68
2022/03/09 00:36:24;;;;;;;4.90;4.33;;;2.60;99.90;;;;;;5012641;28;20231;-67
2022/03/09 00:38:49;;;;;;;6.93;4.40;;;2.60;99.90;;;;;;5012695;28;20192;-67
2022/03/09 00:41:15;;;;;;;5.27;4.73;;;2.50;99.90;;;;;;5012654;28;20164;-68
2022/03/09 00:43:41;;;;;;;4.57;2.90;;;2.50;99.90;;;;;;5012506;28;20330;-67
2022/03/09 00:46:06;;;;;;;5.97;5.30;;;2.50;99.90;;;;;;5012317;28;20173;-69
2022/03/09 00:48:32;;;;;;;7.40;5.67;;;2.50;99.90;;;;;;5012136;28;20188;-67
2022/03/09 00:50:57;;;;;;;7.17;5.30;;;2.50;99.90;;;;;;5012249;28;20267;-68
2022/03/09 00:53:23;;;;;;;9.87;6.07;;;2.50;99.90;;;;;;5012245;28;20230;-67
2022/03/09 00:55:48;;;;;;;7.17;4.23;;;2.50;99.90;;;;;;5012241;28;20172;-67
2022/03/09 00:58:13;;;;;;;13.13;6.20;;;2.50;99.90;;;;;;5012115;28;20203;-68
2022/03/09 01:00:39;;;;;;;9.73;7.63;;;2.50;99.90;;;;;;5012391;28;20202;-68
2022/03/09 01:03:04;;;;;;;8.90;5.70;;;2.40;99.90;;;;;;5012215;28;20516;-68
2022/03/09 01:05:30;;;;;;;11.47;6.07;;;2.60;99.90;;;;;;5011972;28;20168;-68
2022/03/09 01:07:55;;;;;;;8.60;6.43;;;2.60;99.90;;;;;;5012347;28;20200;-68
2022/03/09 01:10:21;;;;;;;9.90;5.13;;;2.60;99.90;;;;;;5011973;28;20322;-68
2022/03/09 01:12:46;;;;;;;11.00;5.67;;;2.60;99.90;;;;;;5011997;28;20160;-69
2022/03/09 01:15:12;;;;;;;6.83;5.20;;;2.50;99.90;;;;;;5011956;28;20174;-67
2022/03/09 01:17:37;;;;;;;8.50;6.17;;;2.40;99.90;;;;;;5011766;28;20605;-67
2022/03/09 01:20:04;;;;;;;8.17;5.10;;;2.30;99.90;;;;;;5011880;28;20168;-67
2022/03/09 01:22:29;;;;;;;9.40;6.50;;;2.30;99.90;;;;;;5011696;28;20168;-68
2022/03/09 01:24:55;;;;;;;7.97;6.67;;;2.30;99.90;;;;;;5011758;28;20432;-68
2022/03/09 01:27:20;;;;;;;9.37;6.83;;;2.30;99.90;;;;;;5011581;28;20250;-67
2022/03/09 01:29:46;;;;;;;15.83;7.40;;;2.40;99.90;;;;;;5011701;28;20185;-68
2022/03/09 01:32:11;;;;;;;8.23;6.70;;;2.50;99.90;;;;;;5011573;28;20219;-67
2022/03/09 01:34:37;;;;;;;11.10;7.50;;;2.40;99.90;;;;;;5011483;28;20219;-67
2022/03/09 01:37:03;;;;;;;9.67;5.73;;;2.30;99.90;;;;;;5011518;28;20206;-67
2022/03/09 01:39:28;;;;;;;7.83;5.57;;;2.30;99.90;;;;;;5011633;28;20164;-67
2022/03/09 01:41:55;;;;;;;11.50;7.50;;;2.20;99.90;;;;;;5016939;28;20972;-67
2022/03/09 01:44:22;;;;;;;10.83;7.13;;;2.10;99.90;;;;;;5018167;28;20205;-68
2022/03/09 01:46:50;;;;;;;9.33;6.00;;;2.10;99.90;;;;;;5017949;28;20422;-68
2022/03/09 01:49:17;;;;;;;11.93;7.60;;;2.00;99.90;;;;;;5018046;28;20411;-67
2022/03/09 01:51:45;;;;;;;8.03;6.47;;;2.00;99.90;;;;;;5017969;28;20414;-69
2022/03/09 01:54:11;;;;;;;8.10;6.50;;;2.00;99.90;;;;;;5017957;28;20426;-68
2022/03/09 01:56:38;;;;;;;9.00;6.60;;;1.90;99.90;;;;;;5000059;28;20486;-67
2022/03/09 01:59:05;;;;;;;10.80;8.53;;;1.90;99.90;;;;;;5018109;28;20801;-67
2022/03/09 02:01:31;;;;;;;6.97;6.13;;;1.90;99.90;;;;;;5017963;28;20410;-68
2022/03/09 02:03:58;;;;;;;9.87;8.80;;;1.80;99.90;;;;;;5017891;28;20399;-67
2022/03/09 02:06:24;;;;;;;9.83;7.00;;;1.80;99.90;;;;;;5017668;28;20421;-67
2022/03/09 02:11:37;;;;;;;12.00;7.40;;;1.80;99.90;;;;;;5017773;28;20413;-67
2022/03/09 02:14:04;;;;;;;10.43;8.43;;;1.80;99.90;;;;;;5017796;28;20502;-67
2022/03/09 02:16:29;;;;;;;9.13;5.50;;;1.80;99.90;;;;;;5017567;28;20533;-67
2022/03/09 02:18:55;;;;;;;7.57;6.87;;;1.70;99.90;;;;;;5017865;28;20899;-67
2022/03/09 02:21:25;;;;;;;9.77;7.57;;;1.70;99.90;;;;;;5018111;28;20168;-67
2022/03/09 02:23:53;;;;;;;8.40;6.70;;;1.70;99.90;;;;;;5017711;28;20172;-67
2022/03/09 02:26:18;;;;;;;13.70;9.40;;;1.70;99.90;;;;;;5017664;28;20418;-68
2022/03/09 02:28:48;;;;;;;7.23;6.50;;;1.70;99.90;;;;;;5017531;28;20442;-67
2022/03/09 02:31:14;;;;;;;7.90;6.60;;;1.70;99.90;;;;;;5017796;28;20176;-67
2022/03/09 02:33:44;;;;;;;9.47;6.93;;;1.60;99.90;;;;;;5017710;28;20844;-67
2022/03/09 02:36:10;;;;;;;11.80;7.10;;;1.60;99.90;;;;;;5017550;28;20779;-67
2022/03/09 02:38:35;;;;;;;8.33;6.07;;;1.70;99.90;;;;;;5017511;28;20431;-67
2022/03/09 02:41:01;;;;;;;16.63;8.67;;;1.60;99.90;;;;;;5017783;28;20207;-67
2022/03/09 02:43:27;;;;;;;12.67;8.10;;;1.60;99.90;;;;;;5017508;28;20164;-68
2022/03/09 02:45:52;;;;;;;17.00;8.10;;;1.60;99.90;;;;;;5017602;28;20256;-67
2022/03/09 02:48:18;;;;;;;6.97;5.80;;;1.60;99.90;;;;;;5017568;28;20517;-67
2022/03/09 02:50:43;;;;;;;9.80;7.63;;;1.50;99.90;;;;;;5017504;28;20172;-67
2022/03/09 02:53:09;;;;;;;13.63;8.27;;;1.50;99.90;;;;;;5014233;28;20681;-67
2022/03/09 02:55:34;;;;;;;12.73;7.37;;;1.50;99.90;;;;;;5014510;28;20172;-66
2022/03/09 02:58:00;;;;;;;8.60;7.73;;;1.50;99.90;;;;;;5014272;28;20682;-67
2022/03/09 03:00:25;;;;;;;8.17;7.50;;;1.50;99.90;;;;;;5014316;28;20234;-67
2022/03/09 03:02:51;;;;;;;10.23;7.73;;;1.50;99.90;;;;;;5014345;28;20165;-67
2022/03/09 03:05:16;;;;;;;10.63;6.93;;;1.40;99.90;;;;;;5014231;28;20677;-68
2022/03/09 03:07:42;;;;;;;8.80;7.27;;;1.40;99.90;;;;;;5014201;28;20192;-67
2022/03/09 03:10:08;;;;;;;16.33;8.50;;;1.40;99.90;;;;;;5014716;28;20200;-68
2022/03/09 03:12:34;;;;;;;13.80;7.40;;;1.40;99.90;;;;;;5014767;28;20188;-68
2022/03/09 03:14:59;;;;;;;17.53;8.37;;;1.40;99.90;;;;;;5014647;28;20415;-68
2022/03/09 03:17:25;;;;;;;9.83;6.60;;;1.30;99.90;;;;;;5014639;28;20532;-68
2022/03/09 03:19:50;;;;;;;11.53;6.87;;;1.40;99.90;;;;;;5014485;28;20599;-67
2022/03/09 03:22:15;;;;;;;15.23;9.63;;;1.40;99.90;;;;;;4997312;28;20184;-67
2022/03/09 03:24:41;;;;;;;20.60;7.93;;;1.30;99.90;;;;;;5017578;28;20181;-67
2022/03/09 03:27:06;;;;;;;15.87;9.20;;;1.30;99.90;;;;;;5017752;28;20235;-68
2022/03/09 03:29:32;;;;;;;10.40;8.53;;;1.30;99.90;;;;;;5017635;28;20218;-68
2022/03/09 03:31:57;;;;;;;24.60;10.27;;;1.30;99.90;;;;;;5014424;28;20176;-68
2022/03/09 03:34:23;;;;;;;11.37;8.73;;;1.30;99.90;;;;;;5014182;28;20176;-67
2022/03/09 03:36:48;;;;;;;11.10;9.40;;;1.30;99.90;;;;;;5013597;28;20199;-67
2022/03/09 03:39:14;;;;;;;20.07;10.53;;;1.30;99.90;;;;;;5013665;28;20568;-67
2022/03/09 03:41:40;;;;;;;12.20;11.00;;;1.20;99.90;;;;;;5013653;28;20183;-67
2022/03/09 03:44:05;;;;;;;12.37;6.70;;;1.30;99.90;;;;;;5013424;28;20407;-67
2022/03/09 03:46:31;;;;;;;9.23;6.97;;;1.20;99.90;;;;;;5013292;28;20168;-67
2022/03/09 03:48:56;;;;;;;13.67;8.50;;;1.20;99.90;;;;;;5013406;28;20176;-67
2022/03/09 03:51:21;;;;;;;11.17;7.80;;;1.20;99.90;;;;;;5013174;28;20172;-68
2022/03/09 03:53:47;;;;;;;13.80;9.60;;;1.20;99.90;;;;;;5013406;28;20336;-67
2022/03/09 03:56:12;;;;;;;11.60;8.57;;;1.20;99.90;;;;;;5013053;28;20651;-67
2022/03/09 03:58:38;;;;;;;13.63;7.70;;;1.10;99.90;;;;;;5013227;28;20243;-67
2022/03/09 04:01:03;;;;;;;17.53;8.47;;;1.10;99.90;;;;;;5013160;28;20635;-67
2022/03/09 04:03:29;;;;;;;8.53;6.20;;;1.10;99.90;;;;;;5012896;28;20164;-67
2022/03/09 04:05:54;;;;;;;12.57;6.90;;;1.20;99.90;;;;;;5012977;28;20214;-66
2022/03/09 04:08:20;;;;;;;15.40;7.57;;;1.20;99.90;;;;;;5013336;28;20188;-67
2022/03/09 04:10:45;;;;;;;7.80;6.87;;;1.20;99.90;;;;;;4995586;28;20176;-68
2022/03/09 04:13:11;;;;;;;13.60;9.90;;;1.20;99.90;;;;;;5012959;28;20176;-68
2022/03/09 04:15:36;;;;;;;7.57;6.63;;;1.20;99.90;;;;;;5013032;28;20746;-67
2022/03/09 04:18:02;;;;;;;14.67;6.93;;;1.20;99.90;;;;;;5012793;28;20619;-67
2022/03/09 04:20:27;;;;;;;11.30;6.20;;;1.10;99.90;;;;;;5012761;28;20259;-67
2022/03/09 04:22:52;;;;;;;11.43;6.97;;;1.10;99.90;;;;;;5012940;28;20169;-66
2022/03/09 04:25:18;;;;;;;6.00;5.27;;;1.00;99.90;;;;;;5012606;28;20187;-67
2022/03/09 04:27:43;;;;;;;10.13;6.57;;;1.00;99.90;;;;;;5012601;28;20208;-67
2022/03/09 04:30:10;;;;;;;11.03;5.57;;;1.00;99.90;;;;;;5012729;28;20183;-67
2022/03/09 04:32:36;;;;;;;9.53;5.70;;;1.00;99.90;;;;;;5012576;28;20172;-67
2022/03/09 04:35:03;;;;;;;8.90;6.77;;;1.00;99.90;;;;;;5012416;28;20415;-67
2022/03/09 04:37:33;;;;;;;9.30;7.90;;;1.00;99.90;;;;;;5012339;28;20455;-68
2022/03/09 04:39:58;;;;;;;9.07;7.67;;;1.00;99.90;;;;;;5012554;28;20492;-67
2022/03/09 04:42:25;;;;;;;6.73;6.03;;;0.90;99.90;;;;;;5012409;28;20486;-67
2022/03/09 04:44:51;;;;;;;7.57;6.17;;;0.90;99.90;;;;;;5012322;28;20177;-67
2022/03/09 04:47:16;;;;;;;5.90;5.23;;;0.90;99.90;;;;;;5012315;28;20522;-67
2022/03/09 04:49:42;;;;;;;12.97;6.87;;;0.90;99.90;;;;;;5012381;28;20191;-67
2022/03/09 04:52:07;;;;;;;15.00;6.83;;;0.90;99.90;;;;;;5012259;28;20565;-66
2022/03/09 04:54:33;;;;;;;7.73;6.10;;;0.90;99.90;;;;;;5012308;28;20279;-67
2022/03/09 04:56:58;;;;;;;7.30;4.93;;;0.90;99.90;;;;;;5012302;28;20216;-67
2022/03/09 04:59:24;;;;;;;6.30;5.70;;;0.90;99.90;;;;;;5012417;28;20573;-69
2022/03/09 05:01:49;;;;;;;8.97;8.27;;;0.90;99.90;;;;;;4994375;28;20238;-67
2022/03/09 05:04:15;;;;;;;7.87;5.40;;;0.90;99.90;;;;;;5012176;28;20202;-68
2022/03/09 05:06:40;;;;;;;8.73;5.37;;;0.90;99.90;;;;;;5011865;28;20187;-67
2022/03/09 05:09:06;;;;;;;10.10;7.20;;;0.90;99.90;;;;;;5012330;28;20187;-66
2022/03/09 05:11:31;;;;;;;5.73;5.33;;;0.90;99.90;;;;;;5011935;28;20173;-67
2022/03/09 05:13:57;;;;;;;7.50;5.10;;;0.80;99.90;;;;;;5012142;28;20238;-67
2022/03/09 05:16:23;;;;;;;6.30;4.50;;;0.80;99.90;;;;;;5011232;28;20192;-67
2022/03/09 05:18:49;;;;;;;5.53;5.03;;;0.90;99.90;;;;;;5011725;28;20437;-66
2022/03/09 05:21:14;;;;;;;5.60;5.00;;;0.80;99.90;;;;;;4994145;28;20657;-66
2022/03/09 05:23:40;;;;;;;8.00;6.20;;;0.80;99.90;;;;;;5011638;28;20454;-66
2022/03/09 05:26:05;;;;;;;6.97;4.13;;;0.80;99.90;;;;;;5011445;28;20230;-67
2022/03/09 05:28:31;;;;;;;11.33;4.70;;;0.80;99.90;;;;;;5011495;28;20243;-66
2022/03/09 05:30:56;;;;;;;5.37;4.90;;;0.80;99.90;;;;;;5011812;28;20540;-66
2022/03/09 05:33:22;;;;;;;6.83;6.00;;;0.80;99.90;;;;;;5011488;28;20247;-66
2022/03/09 05:35:47;;;;;;;7.37;3.83;;;0.80;99.90;;;;;;5011486;28;20175;-66
2022/03/09 05:38:14;;;;;;;13.03;5.90;;;0.80;99.90;;;;;;5011364;28;20199;-66
2022/03/09 05:40:39;;;;;;;5.30;4.00;;;0.80;99.90;;;;;;4994002;28;20208;-66
2022/03/09 05:43:05;;;;;;;19.20;5.67;;;0.80;99.90;;;;;;5011478;28;20466;-66
2022/03/09 05:45:30;;;;;;;6.03;5.53;;;0.90;99.90;;;;;;5011411;28;20327;-66
2022/03/09 05:47:56;;;;;;;7.40;5.00;;;0.90;99.90;;;;;;5011346;28;20196;-66
2022/03/09 05:50:21;;;;;;;5.20;4.20;;;0.90;99.90;;;;;;5011450;28;20176;-66
2022/03/09 05:52:47;;;;;;;7.67;4.83;;;0.90;99.90;;;;;;5011350;28;20270;-66
2022/03/09 05:55:13;;;;;;;4.60;3.77;;;1.00;99.90;;;;;;5011199;28;20839;-67
2022/03/09 05:57:38;;;;;;;5.90;5.40;;;1.00;99.90;;;;;;5011349;28;20212;-66
2022/03/09 06:00:06;;;;;;;6.73;5.30;;;1.00;99.90;;;;;;5011343;28;20177;-66
2022/03/09 06:02:32;;;;;;;12.70;6.50;;;1.00;99.90;;;;;;5011173;28;20636;-66
2022/03/09 06:04:57;;;;;;;15.73;6.80;;;1.00;99.90;;;;;;5011283;28;20522;-67
2022/03/09 06:07:23;;;;;;;7.90;5.70;;;1.10;99.90;;;;;;5011226;28;20204;-67
2022/03/09 06:09:49;;;;;;;5.70;5.20;;;1.10;99.90;;;;;;5011334;28;20203;-68
2022/03/09 06:12:15;;;;;;;7.43;5.20;;;1.10;99.90;;;;;;5011286;28;20172;-67
2022/03/09 06:14:40;;;;;;;7.27;5.87;;;1.20;99.90;;;;;;5011112;28;20407;-68
2022/03/09 06:17:06;;;;;;;6.37;5.00;;;1.30;99.90;;;;;;4993412;28;20462;-67
2022/03/09 06:19:32;;;;;;;7.10;6.13;;;1.40;99.90;;;;;;5011688;28;20169;-68
2022/03/09 06:21:57;;;;;;;6.70;4.77;;;1.50;99.90;;;;;;5011465;28;20531;-68
2022/03/09 06:24:23;;;;;;;4.87;4.47;;;1.60;99.90;;;;;;5011174;28;20697;-67
2022/03/09 06:26:48;;;;;;;15.00;7.47;;;1.70;99.90;;;;;;5011003;28;20177;-67
2022/03/09 06:29:14;;;;;;;6.00;5.40;;;1.80;99.90;;;;;;5037467;23;20216;-71
2022/03/09 06:31:42;;;;;;;7.97;6.20;;;1.90;99.90;;;;;;5016276;28;20173;-70
2022/03/09 06:34:07;;;;;;;9.80;4.73;;;2.10;99.90;;;;;;5019638;28;20161;-70
2022/03/09 06:36:33;;;;;;;7.00;5.90;;;2.30;99.90;;;;;;5018405;28;20466;-70
2022/03/09 06:38:59;;;;;;;8.13;6.53;;;2.70;99.90;;;;;;5019697;28;20222;-70
2022/03/09 06:41:24;;;;;;;7.00;6.13;;;3.60;99.90;;;;;;5019001;28;20659;-71
2022/03/09 06:43:50;;;;;;;7.30;5.77;;;4.50;99.90;;;;;;5014959;28;20542;-70
2022/03/09 06:46:16;;;;;;;5.90;4.80;;;5.40;99.90;;;;;;5015060;28;20255;-70
2022/03/09 06:48:42;;;;;;;7.10;5.10;;;5.70;99.90;;;;;;5014958;28;20315;-70
2022/03/09 06:51:07;;;;;;;12.27;5.00;;;6.30;99.90;;;;;;4997051;28;20435;-71
2022/03/09 06:53:32;;;;;;;5.70;4.67;;;6.30;99.90;;;;;;5014355;28;20168;-70
2022/03/09 06:55:58;;;;;;;8.27;4.90;;;6.50;99.90;;;;;;5014029;28;20555;-71
2022/03/09 06:58:23;;;;;;;5.30;4.67;;;6.70;99.90;;;;;;5014013;28;20207;-71
2022/03/09 07:00:49;;;;;;;6.10;3.90;;;6.90;99.90;;;;;;5013871;28;20192;-70
2022/03/09 07:03:15;;;;;;;5.87;3.77;;;7.00;99.90;;;;;;5013916;28;20609;-70
2022/03/09 07:05:40;;;;;;;8.30;4.80;;;6.60;99.90;;;;;;5014011;28;20469;-70
2022/03/09 07:08:06;;;;;;;8.87;5.50;;;6.60;99.90;;;;;;5014096;28;20221;-71
2022/03/09 07:10:31;;;;;;;8.27;5.20;;;7.20;99.90;;;;;;5014215;28;20210;-70
2022/03/09 07:12:57;;;;;;;9.77;5.37;;;7.40;99.90;;;;;;5013968;28;20172;-71
2022/03/09 07:15:22;;;;;;;13.30;6.60;;;8.00;99.90;;;;;;5013950;28;20215;-72
2022/03/09 07:17:48;;;;;;;7.60;4.93;;;7.90;99.90;;;;;;5013793;28;20253;-71
2022/03/09 07:20:15;;;;;;;11.47;6.40;;;7.80;99.90;;;;;;5014028;28;20176;-71
2022/03/09 07:22:42;;;;;;;7.63;4.67;;;8.20;99.90;;;;;;5014211;28;20853;-71
2022/03/09 07:25:09;;;;;;;8.57;5.00;;;9.30;99.90;;;;;;5014273;28;20924;-70
2022/03/09 07:27:35;;;;;;;7.23;5.60;;;9.10;99.90;;;;;;5013950;28;20785;-71
2022/03/09 07:30:00;;;;;;;9.87;6.47;;;8.90;99.90;;;;;;5013914;28;20511;-71
2022/03/09 07:32:26;;;;;;;6.93;4.83;;;8.50;99.90;;;;;;5013597;28;20261;-70
2022/03/09 07:34:51;;;;;;;6.57;4.90;;;8.90;99.90;;;;;;5013779;28;20535;-70
2022/03/09 07:37:16;;;;;;;7.10;5.73;;;8.70;99.90;;;;;;5013435;28;20294;-70
2022/03/09 07:39:42;;;;;;;5.70;5.00;;;8.50;99.90;;;;;;5013007;28;20193;-70
2022/03/09 07:42:07;;;;;;;6.57;5.17;;;8.90;99.90;;;;;;5013496;28;20224;-69
2022/03/09 07:44:33;;;;;;;11.57;6.60;;;8.80;99.90;;;;;;5013106;28;20183;-69
2022/03/09 07:46:58;;;;;;;8.13;5.77;;;9.00;99.90;;;;;;5013280;28;20628;-69
2022/03/09 07:49:24;;;;;;;8.60;6.50;;;9.30;99.90;;;;;;5013288;28;20208;-70
2022/03/09 07:51:50;;;;;;;7.63;5.70;;;9.60;99.90;;;;;;5013186;28;20612;-70
2022/03/09 07:54:16;;;;;;;6.23;5.53;;;9.90;99.90;;;;;;5013231;28;20177;-70
2022/03/09 07:56:42;;;;;;;6.47;5.53;;;10.30;99.90;;;;;;5013026;28;20312;-70
2022/03/09 07:59:08;;;;;;;12.93;6.30;;;10.20;99.90;;;;;;5012911;28;20437;-70
2022/03/09 08:01:34;;;;;;;8.87;6.60;;;10.80;99.90;;;;;;5013226;28;20547;-70
2022/03/09 08:03:59;;;;;;;7.17;5.80;;;10.50;99.40;;;;;;5012886;28;20455;-70
2022/03/09 08:06:25;;;;;;;10.53;6.70;;;10.90;98.40;;;;;;5012841;28;20173;-70
2022/03/09 08:08:51;;;;;;;6.63;5.93;;;10.90;98.40;;;;;;5012860;28;20206;-70
2022/03/09 08:11:16;;;;;;;10.03;6.77;;;10.60;99.00;;;;;;5012973;28;20410;-70
2022/03/09 08:13:42;;;;;;;8.90;6.87;;;10.30;98.80;;;;;;4995217;28;20178;-71
2022/03/09 08:16:08;;;;;;;7.73;7.00;;;12.00;97.80;;;;;;5012883;28;20198;-71
2022/03/09 08:18:34;;;;;;;7.00;6.30;;;13.00;95.70;;;;;;5013071;28;20688;-71
2022/03/09 08:20:59;;;;;;;6.37;5.13;;;13.30;94.60;;;;;;5012875;28;20426;-71
2022/03/09 08:23:25;;;;;;;10.03;6.63;;;13.80;94.00;;;;;;5013150;28;20414;-71
2022/03/09 08:25:51;;;;;;;6.93;6.33;;;13.10;93.40;;;;;;5013233;28;20175;-71
2022/03/09 08:28:17;;;;;;;6.87;6.17;;;13.10;92.60;;;;;;5012696;28;20588;-70
2022/03/09 08:30:42;;;;;;;7.27;5.70;;;12.70;94.30;;;;;;5012516;28;20415;-70
2022/03/09 08:33:08;;;;;;;7.00;5.50;;;13.60;92.40;;;;;;5012761;28;20164;-70
2022/03/09 08:35:34;;;;;;;6.83;5.50;;;13.40;91.80;;;;;;5013334;28;20630;-71
2022/03/09 08:38:00;;;;;;;5.87;4.70;;;13.30;92.40;;;;;;5012546;28;20537;-70
2022/03/09 08:40:25;;;;;;;6.20;4.80;;;13.00;92.90;;;;;;5012358;28;20411;-70
2022/03/09 08:42:51;;;;;;;5.50;4.80;;;14.80;92.10;;;;;;5012676;28;20648;-71
2022/03/09 08:45:16;;;;;;;7.33;4.57;;;15.20;88.60;;;;;;5012817;28;20255;-71
2022/03/09 08:47:42;;;;;;;5.70;4.53;;;15.90;85.40;;;;;;5012138;28;20276;-71
2022/03/09 08:50:08;;;;;;;5.70;4.77;;;15.30;83.90;;;;;;5011699;28;20169;-71
2022/03/09 08:52:33;;;;;;;4.97;3.30;;;16.40;81.40;;;;;;5013069;28;20546;-71
2022/03/09 08:54:59;;;;;;;4.13;3.73;;;16.30;81.40;;;;;;5015762;28;20419;-72
2022/03/09 08:57:24;;;;;;;5.50;4.43;;;16.40;79.00;;;;;;5017879;28;20191;-71
2022/03/09 08:59:50;;;;;;;5.63;4.00;;;15.30;77.60;;;;;;5016865;28;20229;-71
2022/03/09 09:02:15;;;;;;;4.67;4.13;;;16.10;77.00;;;;;;5018116;28;20168;-71
2022/03/09 09:04:41;;;;;;;4.63;3.97;;;16.70;72.90;;;;;;5017116;28;20653;-71
2022/03/09 09:07:06;;;;;;;6.83;4.73;;;15.80;74.40;;;;;;5016040;28;20226;-71
2022/03/09 09:09:33;;;;;;;5.07;4.57;;;14.50;74.50;;;;;;5012102;28;20302;-71
2022/03/09 09:11:59;;;;;;;6.50;4.93;;;14.70;76.90;;;;;;5012137;28;20688;-71
2022/03/09 09:14:25;;;;;;;6.77;5.30;;;14.50;76.50;;;;;;5012269;28;20575;-71
2022/03/09 09:16:50;;;;;;;4.80;4.30;;;14.80;78.70;;;;;;5012055;28;20809;-71
2022/03/09 09:19:16;;;;;;;7.00;5.03;;;15.60;78.30;;;;;;5012052;28;20667;-71
2022/03/09 09:21:42;;;;;;;5.20;4.70;;;15.60;78.30;;;;;;5012126;28;20322;-71
2022/03/09 09:24:07;;;;;;;5.50;4.20;;;15.10;76.20;;;;;;5012035;28;20540;-71
2022/03/09 09:26:33;;;;;;;6.47;4.77;;;15.30;74.40;;;;;;5011965;28;20735;-71
2022/03/09 09:28:58;;;;;;;6.30;5.67;;;13.40;76.90;;;;;;5011998;28;20245;-70
2022/03/09 09:31:24;;;;;;;6.03;5.10;;;13.90;79.40;;;;;;5012361;28;20244;-70
2022/03/09 09:33:50;;;;;;;7.20;5.00;;;14.30;76.10;;;;;;5013079;28;20194;-72
2022/03/09 09:36:16;;;;;;;4.57;3.90;;;13.30;77.10;;;;;;5013854;28;20191;-71
2022/03/09 09:38:41;;;;;;;6.83;4.67;;;13.60;77.80;;;;;;5013828;28;20546;-72
2022/03/09 09:41:13;;;;;;;5.50;4.60;;;13.10;78.30;;;;;;5013820;28;20402;-71
2022/03/09 09:43:40;;;;;;;6.90;4.30;;;14.30;77.00;;;;;;5013538;28;20175;-71
2022/03/09 09:46:07;;;;;;;4.83;3.33;;;14.60;75.10;;;;;;5017130;28;20398;-72
2022/03/09 09:48:33;;;;;;;4.87;4.10;;;14.40;75.70;;;;;;5021093;28;20530;-74
2022/03/09 09:50:59;;;;;;;4.07;3.47;;;14.60;75.60;;;;;;5023240;28;20412;-71
2022/03/09 09:53:30;;;;;;;5.57;4.80;;;14.10;73.20;;;;;;5022010;28;20415;-71
2022/03/09 09:55:58;;;;;;;4.83;3.30;;;14.20;77.70;;;;;;5019359;28;20479;-71
2022/03/09 09:58:25;;;;;;;6.57;4.10;;;13.80;75.70;;;;;;5015113;28;20461;-71
2022/03/09 10:00:51;;;;;;;5.93;3.43;;;14.00;76.50;;;;;;5015600;28;20417;-71
2022/03/09 10:03:17;;;;;;;4.00;3.50;;;14.00;73.40;;;;;;5018487;28;20410;-70
2022/03/09 10:05:43;;;;;;;5.27;4.00;;;14.30;73.50;;;;;;5021702;28;21066;-71
2022/03/09 10:08:13;;;;;;;5.73;3.53;;;13.40;73.80;;;;;;5025728;28;20434;-71
2022/03/09 10:10:42;;;;;;;5.17;3.17;;;12.40;74.90;;;;;;5022541;28;20417;-71
2022/03/09 10:13:19;;;;;;;7.10;3.53;;;12.60;75.90;;;;;;5017770;28;20771;-71
2022/03/09 10:15:48;;;;;;;5.43;4.60;;;12.40;77.00;;;;;;5015621;28;20491;-71
2022/03/09 10:18:17;;;;;;;4.13;3.60;;;12.70;77.30;;;;;;5015219;28;20510;-71
2022/03/09 10:20:44;;;;;;;4.63;3.50;;;11.70;78.40;;;;;;5015689;28;20886;-71
2022/03/09 10:23:10;;;;;;;5.10;3.50;;;11.90;78.60;;;;;;5017026;28;20462;-70
2022/03/09 10:25:38;;;;;;;5.70;2.90;;;11.00;78.50;;;;;;5015893;28;20435;-71
2022/03/09 10:28:09;;;;;;;4.57;2.40;;;11.20;80.70;;;;;;5015059;28;20462;-71
2022/03/09 10:30:37;;;;;;;3.97;2.80;;;11.40;79.90;;;;;;5015293;28;20415;-71
2022/03/09 10:33:12;;;;;;;6.20;2.90;;;11.80;78.80;;;;;;5015075;28;20631;-71
2022/03/09 10:35:40;;;;;;;3.03;2.73;;;11.80;77.60;;;;;;5014868;28;20402;-70
2022/03/09 10:38:22;;;;;;;7.83;3.73;;;11.50;77.70;;;;;;5014935;28;21014;-71
2022/03/09 10:40:55;;;;;;;5.17;2.83;;;11.10;79.20;;;;;;5015206;28;20454;-71
2022/03/09 10:43:27;;;;;;;4.40;2.73;;;11.10;79.20;;;;;;5015149;28;20749;-71
2022/03/09 10:46:08;;;;;;;4.17;2.53;;;11.20;78.20;;;;;;5014934;28;20427;-71
2022/03/09 10:49:02;;;;;;;5.37;3.03;;;11.00;78.60;;;;;;5014959;28;20438;-71
2022/03/09 10:51:41;;;;;;;5.40;2.77;;;10.80;79.60;;;;;;5014940;28;20406;-70
2022/03/09 10:54:06;;;;;;;3.03;2.47;;;10.70;79.70;;;;;;5014678;28;20774;-70
2022/03/09 10:56:33;;;;;;;6.83;3.00;;;10.80;81.20;;;;;;5014847;28;20443;-70
2022/03/09 10:59:17;;;;;;;3.17;2.47;;;10.60;81.50;;;;;;5014612;28;20188;-70
2022/03/09 11:01:43;;;;;;;2.37;1.90;;;10.60;81.80;;;;;;5014648;28;20414;-71
2022/03/09 11:04:11;;;;;;;3.50;2.70;;;10.60;81.50;;;;;;5014610;28;20411;-72
2022/03/09 11:06:37;;;;;;;2.47;1.93;;;10.60;79.50;;;;;;5014581;28;20408;-71
2022/03/09 11:09:02;;;;;;;4.83;2.70;;;10.60;79.10;;;;;;5029530;28;20462;-71
2022/03/09 11:11:28;;;;;;;3.00;2.20;;;10.80;79.40;;;;;;5034374;28;20449;-72
2022/03/09 11:13:57;;;;;;;6.20;2.93;;;10.80;79.60;;;;;;5034070;28;20225;-72
2022/03/09 11:16:23;;;;;;;3.00;1.77;;;10.50;80.10;;;;;;5041208;28;20247;-71
2022/03/09 11:18:49;;;;;;;5.13;2.70;;;10.50;81.30;;;;;;5028017;28;20501;-71
2022/03/09 11:21:16;;;;;;;5.00;3.13;;;10.70;80.60;;;;;;5022571;28;20483;-71
2022/03/09 11:23:42;;;;;;;4.33;2.83;;;10.90;79.70;;;;;;5022708;28;20414;-72
2022/03/09 11:26:17;;;;;;;3.87;2.47;;;10.70;80.20;;;;;;5016277;28;20411;-71
2022/03/09 11:28:44;;;;;;;3.23;2.40;;;10.90;79.90;;;;;;5013413;28;20222;-71
2022/03/09 11:31:16;;;;;;;5.60;3.20;;;10.90;79.70;;;;;;5014033;28;20418;-71
2022/03/09 11:33:46;;;;;;;4.63;3.37;;;11.00;79.00;;;;;;5014328;28;20412;-71
2022/03/09 11:36:33;;;;;;;3.17;2.50;;;11.00;79.40;;;;;;5014428;28;20419;-71
2022/03/09 11:39:04;;;;;;;2.50;2.03;;;10.90;78.40;;;;;;5015282;28;20439;-72
2022/03/09 11:41:37;;;;;;;3.50;2.27;;;10.90;78.70;;;;;;5015657;28;20419;-72
2022/03/09 11:44:18;;;;;;;2.83;1.97;;;10.90;79.00;;;;;;5013991;28;20546;-72
2022/03/09 11:47:01;;;;;;;3.60;2.00;;;10.90;77.90;;;;;;5008185;28;20410;-71
2022/03/09 11:49:36;;;;;;;2.30;1.90;;;11.00;77.50;;;;;;5014192;28;20517;-71
2022/03/09 11:52:22;;;;;;;4.37;2.17;;;11.00;77.60;;;;;;5013825;28;20411;-71
2022/03/09 11:55:01;;;;;;;2.53;2.07;;;10.80;77.30;;;;;;5013819;28;20415;-71
2022/03/09 11:57:45;;;;;;;3.67;2.17;;;10.80;75.60;;;;;;5013599;28;20455;-71
2022/03/09 12:00:12;;;;;;;4.03;2.40;;;11.00;75.40;;;;;;5013786;28;20403;-70
2022/03/09 12:02:39;;;;;;;2.60;1.90;;;11.10;76.10;;;;;;5013454;28;20465;-72
2022/03/09 12:05:06;;;;;;;2.70;2.00;;;11.00;76.40;;;;;;5013245;28;20499;-71
2022/03/09 12:07:35;;;;;;;2.37;1.90;;;11.00;76.10;;;;;;5013595;28;20771;-70
2022/03/09 12:10:12;;;;;;;2.63;2.13;;;11.20;76.80;;;;;;5015821;28;20912;-70
2022/03/09 12:12:58;;;;;;;3.03;2.40;;;11.30;75.90;;;;;;5034810;28;20467;-71
2022/03/09 12:15:24;;;;;;;3.17;2.03;;;11.20;76.40;;;;;;5033599;28;20434;-71
2022/03/09 12:17:49;;;;;;;2.27;1.83;;;11.20;76.10;;;;;;5026867;28;20513;-71
2022/03/09 12:20:31;;;;;;;2.83;2.63;;;11.10;75.50;;;;;;5013128;28;20251;-71
2022/03/09 12:22:56;;;;;;;2.13;1.73;;;11.20;75.90;;;;;;5013115;28;20156;-73
2022/03/09 12:25:44;;;;;;;2.23;1.93;;;11.30;73.90;;;;;;5013028;28;20498;-73
2022/03/09 12:28:22;;;;;;;2.60;2.40;;;11.30;73.80;;;;;;5036815;23;20564;-68
2022/03/09 12:30:58;;;;;;;2.80;2.40;;;11.20;72.90;;;;;;5011699;28;20867;-68
2022/03/09 12:33:32;;;;;;;3.70;2.30;;;11.30;73.70;;;;;;5012754;28;20889;-68
2022/03/09 12:36:07;;;;;;;3.20;2.50;;;11.40;73.50;;;;;;5012755;28;20868;-68
2022/03/09 12:38:37;;;;;;;2.50;2.27;;;11.10;73.20;;;;;;5012149;28;20821;-68
2022/03/09 12:41:03;;;;;;;2.87;2.53;;;11.20;71.00;;;;;;4994644;28;20427;-67
2022/03/09 12:43:49;;;;;;;2.60;2.40;;;11.30;68.90;;;;;;4993847;28;20959;-67
2022/03/09 12:46:15;;;;;;;3.47;2.60;;;11.40;70.90;;;;;;5008074;28;20996;-68
2022/03/09 12:48:41;;;;;;;4.17;2.50;;;11.40;72.30;;;;;;5000325;28;20968;-67
2022/03/09 12:51:06;;;;;;;3.60;2.50;;;11.40;73.40;;;;;;4993782;28;20496;-67
2022/03/09 12:53:32;;;;;;;5.63;3.03;;;11.40;72.80;;;;;;4992704;28;20408;-67